Latest Weather Observations for St Kilda Harbour RMYS

IDV60901

Issued at 7:11 pm EST Sunday 10 May 2026 (issued every 10 minutes, with the page automatically refreshed every 10 minutes)

About weather observations | Map of Melbourne area stations | Latest observations for Melbourne area | Other Formats
Station Details ID: 086220 Name: ST KILDA HARBOUR - RMYS Lat: -37.86 Lon: 144.96 Height: 6.4 m
Data from the previous 72 hours. | See also: Recent months at St Kilda Harbour RMYS
Date/Time
EST
Temp
°C
App
Temp
°C
Dew
Point
°C
Rel
Hum
%
Delta-T
°C
Wind Press
QNH
hPa
Press
MSL
hPa
Rain since
9am
mm
Dir  Spd
km/h
Gust
km/h
Spd
kts
Gust
kts
10/07:00pm - - - - - SSW 15 17 8 9 - - -
10/06:30pm - - - - - SSW 13 17 7 9 - - -
10/06:00pm - - - - - SSW 13 13 7 7 - - -
10/05:30pm - - - - - SW 7 11 4 6 - - -
10/05:00pm - - - - - WSW 11 13 6 7 - - -
10/04:30pm - - - - - SW 15 17 8 9 - - -
10/04:00pm - - - - - WSW 11 15 6 8 - - -
10/03:30pm - - - - - WSW 7 11 4 6 - - -
10/03:00pm - - - - - S 9 15 5 8 - - -
10/02:30pm - - - - - SW 7 11 4 6 - - -
10/02:00pm - - - - - S 7 11 4 6 - - -
10/01:30pm - - - - - S 9 11 5 6 - - -
10/01:00pm - - - - - S 9 17 5 9 - - -
10/12:30pm - - - - - SSW 11 15 6 8 - - -
10/12:00pm - - - - - SW 15 20 8 11 - - -
10/11:30am - - - - - SSW 17 20 9 11 - - -
10/11:00am - - - - - WSW 13 17 7 9 - - -
10/10:30am - - - - - WSW 17 19 9 10 - - -
10/10:00am - - - - - W 9 17 5 9 - - -
10/09:30am - - - - - WNW 11 15 6 8 - - -
10/09:00am - - - - - WNW 7 9 4 5 - - -
10/08:30am - - - - - WNW 7 11 4 6 - - -
10/08:00am - - - - - NW 6 9 3 5 - - -
10/07:30am - - - - - NNW 2 6 1 3 - - -
10/07:00am - - - - - ENE 4 6 2 3 - - -
10/06:30am - - - - - ESE 7 9 4 5 - - -
10/06:00am - - - - - SE 9 13 5 7 - - -
10/05:30am - - - - - SSW 11 15 6 8 - - -
10/05:00am - - - - - WSW 9 13 5 7 - - -
10/04:30am - - - - - SSW 13 17 7 9 - - -
10/04:00am - - - - - SW 20 24 11 13 - - -
10/03:30am - - - - - SW 19 20 10 11 - - -
10/03:00am - - - - - SW 15 19 8 10 - - -
10/02:30am - - - - - SW 19 22 10 12 - - -
10/02:00am - - - - - SSW 20 24 11 13 - - -
10/01:30am - - - - - SSW 20 24 11 13 - - -
10/01:00am - - - - - SSW 20 30 11 16 - - -
10/12:30am - - - - - SSW 22 24 12 13 - - -
10/12:00am - - - - - SSW 19 20 10 11 - - -
 
Date/Time
EST
Temp
°C
App
Temp
°C
Dew
Point
°C
Rel
Hum
%
Delta-T
°C
Wind Press
QNH
hPa
Press
MSL
hPa
Rain since
9am
mm
Dir  Spd
km/h
Gust
km/h
Spd
kts
Gust
kts
09/11:30pm - - - - - SSW 19 22 10 12 - - -
09/11:00pm - - - - - SSW 13 24 7 13 - - -
09/10:30pm - - - - - SSW 20 26 11 14 - - -
09/10:00pm - - - - - SSW 19 24 10 13 - - -
09/09:30pm - - - - - SSW 15 20 8 11 - - -
09/09:00pm - - - - - SSW 15 20 8 11 - - -
09/08:30pm - - - - - S 9 15 5 8 - - -
09/08:00pm - - - - - SSW 13 17 7 9 - - -
09/07:30pm - - - - - S 15 17 8 9 - - -
09/07:00pm - - - - - S 19 20 10 11 - - -
09/06:30pm - - - - - S 15 19 8 10 - - -
09/06:00pm - - - - - S 13 15 7 8 - - -
09/05:30pm - - - - - S 15 19 8 10 - - -
09/05:00pm - - - - - S 19 22 10 12 - - -
09/04:30pm - - - - - SSW 15 20 8 11 - - -
09/04:00pm - - - - - W 4 6 2 3 - - -
09/03:30pm - - - - - CALM 0 2 0 1 - - -
09/03:00pm - - - - - CALM 0 0 0 0 - - -
09/02:30pm - - - - - SSW 7 9 4 5 - - -
09/02:00pm - - - - - SW 11 15 6 8 - - -
09/01:30pm - - - - - SW 15 17 8 9 - - -
09/01:00pm - - - - - WSW 15 19 8 10 - - -
09/12:30pm - - - - - SW 20 22 11 12 - - -
09/12:00pm - - - - - WSW 20 24 11 13 - - -
09/11:30am - - - - - WSW 22 26 12 14 - - -
09/11:00am - - - - - WSW 22 24 12 13 - - -
09/10:30am - - - - - WSW 24 28 13 15 - - -
09/10:00am - - - - - WSW 26 30 14 16 - - -
09/09:30am - - - - - WSW 24 28 13 15 - - -
09/09:00am - - - - - WSW 24 28 13 15 - - -
09/08:30am - - - - - WSW 28 32 15 17 - - -
09/08:00am - - - - - WSW 28 32 15 17 - - -
09/07:30am - - - - - WSW 26 32 14 17 - - -
09/07:00am - - - - - WSW 24 28 13 15 - - -
09/06:30am - - - - - WSW 20 26 11 14 - - -
09/06:00am - - - - - WSW 24 30 13 16 - - -
09/05:30am - - - - - WSW 26 28 14 15 - - -
09/05:00am - - - - - WSW 24 32 13 17 - - -
09/04:30am - - - - - WSW 24 28 13 15 - - -
09/04:00am - - - - - WSW 22 26 12 14 - - -
09/03:30am - - - - - WSW 26 32 14 17 - - -
09/03:00am - - - - - WSW 22 30 12 16 - - -
09/02:30am - - - - - WSW 24 32 13 17 - - -
09/02:00am - - - - - WSW 26 30 14 16 - - -
09/01:30am - - - - - WSW 24 30 13 16 - - -
09/01:00am - - - - - WSW 26 30 14 16 - - -
09/12:30am - - - - - WSW 26 30 14 16 - - -
09/12:00am - - - - - WSW 28 32 15 17 - - -
 
Date/Time
EST
Temp
°C
App
Temp
°C
Dew
Point
°C
Rel
Hum
%
Delta-T
°C
Wind Press
QNH
hPa
Press
MSL
hPa
Rain since
9am
mm
Dir  Spd
km/h
Gust
km/h
Spd
kts
Gust
kts
08/11:30pm - - - - - WSW 30 33 16 18 - - -
08/11:00pm - - - - - WSW 28 33 15 18 - - -
08/10:30pm - - - - - WSW 26 32 14 17 - - -
08/10:00pm - - - - - WSW 26 30 14 16 - - -
08/09:30pm - - - - - WSW 28 33 15 18 - - -
08/09:00pm - - - - - SW 32 37 17 20 - - -
08/08:30pm - - - - - SW 32 39 17 21 - - -
08/08:00pm - - - - - SW 32 39 17 21 - - -
08/07:30pm - - - - - SSW 35 41 19 22 - - -
08/07:00pm - - - - - SSW 35 43 19 23 - - -
08/06:30pm - - - - - SSW 30 35 16 19 - - -
08/06:00pm - - - - - S 33 39 18 21 - - -
08/05:30pm - - - - - SSW 32 39 17 21 - - -
08/05:00pm - - - - - SSW 35 41 19 22 - - -
08/04:30pm - - - - - SSW 32 37 17 20 - - -
08/04:00pm - - - - - SSW 33 43 18 23 - - -
08/03:30pm - - - - - SSW 35 41 19 22 - - -
08/03:00pm - - - - - SSW 39 44 21 24 - - -
08/02:30pm - - - - - SSW 35 43 19 23 - - -
08/02:00pm - - - - - SSW 35 41 19 22 - - -
08/01:30pm - - - - - SSW 37 44 20 24 - - -
08/01:00pm - - - - - SW 28 41 15 22 - - -
08/12:30pm - - - - - SW 28 33 15 18 - - -
08/12:00pm - - - - - WSW 32 39 17 21 - - -
08/11:30am - - - - - WSW 35 41 19 22 - - -
08/11:00am - - - - - WSW 35 43 19 23 - - -
08/10:30am - - - - - WSW 35 43 19 23 - - -
08/10:00am - - - - - WSW 32 39 17 21 - - -
08/09:30am - - - - - WSW 32 39 17 21 - - -
08/09:00am - - - - - WSW 37 44 20 24 - - -
08/08:30am - - - - - WSW 33 39 18 21 - - -
08/08:00am - - - - - WSW 30 35 16 19 - - -
08/07:30am - - - - - WSW 33 39 18 21 - - -
08/07:00am - - - - - WSW 39 46 21 25 - - -
08/06:30am - - - - - WSW 41 48 22 26 - - -
08/06:00am - - - - - WSW 43 52 23 28 - - -
08/05:30am - - - - - WSW 43 52 23 28 - - -
08/05:00am - - - - - WSW 39 50 21 27 - - -
08/04:30am - - - - - WSW 41 52 22 28 - - -
08/04:00am - - - - - W 41 52 22 28 - - -
08/03:30am - - - - - W 37 44 20 24 - - -
08/03:00am - - - - - WSW 41 52 22 28 - - -
08/02:30am - - - - - W 32 39 17 21 - - -
08/02:00am - - - - - W 35 48 19 26 - - -
08/01:30am - - - - - W 35 44 19 24 - - -
08/01:00am - - - - - W 35 44 19 24 - - -
08/12:30am - - - - - W 35 46 19 25 - - -
08/12:00am - - - - - W 33 46 18 25 - - -
 
Date/Time
EST
Temp
°C
App
Temp
°C
Dew
Point
°C
Rel
Hum
%
Delta-T
°C
Wind Press
QNH
hPa
Press
MSL
hPa
Rain since
9am
mm
Dir  Spd
km/h
Gust
km/h
Spd
kts
Gust
kts
07/11:30pm - - - - - W 33 43 18 23 - - -
07/11:00pm - - - - - W 26 33 14 18 - - -
07/10:30pm - - - - - W 28 37 15 20 - - -
07/10:00pm - - - - - W 30 39 16 21 - - -
07/09:30pm - - - - - W 30 44 16 24 - - -
07/09:00pm - - - - - W 30 43 16 23 - - -
07/08:30pm - - - - - W 30 39 16 21 - - -
07/08:00pm - - - - - W 35 46 19 25 - - -
07/07:30pm - - - - - W 39 50 21 27 - - -

Latest Capital City Observations: Canberra | Sydney | Melbourne | Brisbane | Adelaide | Perth | Hobart | Darwin

Other formats

Comma delimited format used in spreadsheet applications
http://www.bom.gov.au/fwo/IDV60901/IDV60901.95864.axf

JavaScript Object Notation format (JSON) in row-major order
http://www.bom.gov.au/fwo/IDV60901/IDV60901.95864.json

Data quality

Most of these data are generated automatically and are frequently updated. Quality checks on data are not normally performed. It is possible for incorrect values to appear. Refer to information at About Latest Weather Observations and please check the disclaimer before using these data.